sensor_id;sensor_type;location;lat;lon;timestamp;P1;durP1;ratioP1;P2;durP2;ratioP2
54177;SDS011;40085;53.004;6.770;2023-04-03T00:01:31;0.98;;;0.52;;
54177;SDS011;40085;53.004;6.770;2023-04-03T00:03:58;0.40;;;0.40;;
54177;SDS011;40085;53.004;6.770;2023-04-03T00:06:24;0.55;;;0.50;;
54177;SDS011;40085;53.004;6.770;2023-04-03T00:08:50;0.95;;;0.52;;
54177;SDS011;40085;53.004;6.770;2023-04-03T00:11:16;0.40;;;0.40;;
54177;SDS011;40085;53.004;6.770;2023-04-03T00:13:43;0.60;;;0.32;;
54177;SDS011;40085;53.004;6.770;2023-04-03T00:16:09;0.32;;;0.30;;
54177;SDS011;40085;53.004;6.770;2023-04-03T00:18:36;0.35;;;0.35;;
54177;SDS011;40085;53.004;6.770;2023-04-03T00:21:02;0.50;;;0.50;;
54177;SDS011;40085;53.004;6.770;2023-04-03T00:23:28;1.27;;;0.57;;
54177;SDS011;40085;53.004;6.770;2023-04-03T00:25:54;0.85;;;0.43;;
54177;SDS011;40085;53.004;6.770;2023-04-03T00:28:20;2.22;;;0.50;;
54177;SDS011;40085;53.004;6.770;2023-04-03T00:30:46;0.65;;;0.40;;
54177;SDS011;40085;53.004;6.770;2023-04-03T00:33:13;2.13;;;0.45;;
54177;SDS011;40085;53.004;6.770;2023-04-03T00:35:39;0.35;;;0.28;;
54177;SDS011;40085;53.004;6.770;2023-04-03T00:38:05;0.98;;;0.47;;
54177;SDS011;40085;53.004;6.770;2023-04-03T00:40:36;0.30;;;0.30;;
54177;SDS011;40085;53.004;6.770;2023-04-03T00:43:08;0.47;;;0.35;;
54177;SDS011;40085;53.004;6.770;2023-04-03T00:45:47;0.75;;;0.50;;
54177;SDS011;40085;53.004;6.770;2023-04-03T00:50:58;0.35;;;0.35;;
54177;SDS011;40085;53.004;6.770;2023-04-03T00:53:29;0.65;;;0.40;;
54177;SDS011;40085;53.004;6.770;2023-04-03T00:56:02;0.28;;;0.28;;
54177;SDS011;40085;53.004;6.770;2023-04-03T00:58:37;0.30;;;0.25;;
54177;SDS011;40085;53.004;6.770;2023-04-03T01:01:08;0.32;;;0.22;;
54177;SDS011;40085;53.004;6.770;2023-04-03T01:03:37;0.68;;;0.50;;
54177;SDS011;40085;53.004;6.770;2023-04-03T01:06:03;0.55;;;0.35;;
54177;SDS011;40085;53.004;6.770;2023-04-03T01:08:29;1.50;;;0.57;;
54177;SDS011;40085;53.004;6.770;2023-04-03T01:10:55;0.70;;;0.40;;
54177;SDS011;40085;53.004;6.770;2023-04-03T01:13:23;4.63;;;0.47;;
54177;SDS011;40085;53.004;6.770;2023-04-03T01:15:54;0.70;;;0.50;;
54177;SDS011;40085;53.004;6.770;2023-04-03T01:18:21;2.45;;;1.30;;
54177;SDS011;40085;53.004;6.770;2023-04-03T01:23:25;0.50;;;0.40;;
54177;SDS011;40085;53.004;6.770;2023-04-03T01:25:57;0.47;;;0.43;;
54177;SDS011;40085;53.004;6.770;2023-04-03T01:28:25;0.47;;;0.47;;
54177;SDS011;40085;53.004;6.770;2023-04-03T01:30:58;1.75;;;0.50;;
54177;SDS011;40085;53.004;6.770;2023-04-03T01:33:40;2.40;;;0.68;;
54177;SDS011;40085;53.004;6.770;2023-04-03T01:36:10;1.67;;;0.70;;
54177;SDS011;40085;53.004;6.770;2023-04-03T01:38:38;1.65;;;0.68;;
54177;SDS011;40085;53.004;6.770;2023-04-03T01:41:04;1.75;;;0.73;;
54177;SDS011;40085;53.004;6.770;2023-04-03T01:43:29;1.58;;;0.60;;
54177;SDS011;40085;53.004;6.770;2023-04-03T01:45:55;0.63;;;0.40;;
54177;SDS011;40085;53.004;6.770;2023-04-03T01:48:21;1.85;;;0.60;;
54177;SDS011;40085;53.004;6.770;2023-04-03T01:50:47;1.48;;;0.63;;
54177;SDS011;40085;53.004;6.770;2023-04-03T01:53:12;1.50;;;0.65;;
54177;SDS011;40085;53.004;6.770;2023-04-03T01:55:38;1.25;;;0.50;;
54177;SDS011;40085;53.004;6.770;2023-04-03T01:58:04;0.60;;;0.40;;
54177;SDS011;40085;53.004;6.770;2023-04-03T02:00:29;6.53;;;0.73;;
54177;SDS011;40085;53.004;6.770;2023-04-03T02:02:55;2.63;;;0.75;;
54177;SDS011;40085;53.004;6.770;2023-04-03T02:05:22;0.90;;;0.45;;
54177;SDS011;40085;53.004;6.770;2023-04-03T02:07:48;0.85;;;0.60;;
54177;SDS011;40085;53.004;6.770;2023-04-03T02:10:13;3.35;;;0.70;;
54177;SDS011;40085;53.004;6.770;2023-04-03T02:12:39;1.38;;;0.68;;
54177;SDS011;40085;53.004;6.770;2023-04-03T02:15:06;2.72;;;0.50;;
54177;SDS011;40085;53.004;6.770;2023-04-03T02:17:32;1.40;;;0.57;;
54177;SDS011;40085;53.004;6.770;2023-04-03T02:19:57;0.70;;;0.60;;
54177;SDS011;40085;53.004;6.770;2023-04-03T02:22:23;1.00;;;0.55;;
54177;SDS011;40085;53.004;6.770;2023-04-03T02:24:48;2.00;;;0.80;;
54177;SDS011;40085;53.004;6.770;2023-04-03T02:27:14;2.08;;;0.73;;
54177;SDS011;40085;53.004;6.770;2023-04-03T02:29:40;0.73;;;0.50;;
54177;SDS011;40085;53.004;6.770;2023-04-03T02:32:06;0.73;;;0.57;;
54177;SDS011;40085;53.004;6.770;2023-04-03T02:34:32;1.70;;;0.60;;
54177;SDS011;40085;53.004;6.770;2023-04-03T02:36:57;1.48;;;0.50;;
54177;SDS011;40085;53.004;6.770;2023-04-03T02:39:23;0.50;;;0.50;;
54177;SDS011;40085;53.004;6.770;2023-04-03T02:41:48;0.85;;;0.52;;
54177;SDS011;40085;53.004;6.770;2023-04-03T02:44:14;1.27;;;0.55;;
54177;SDS011;40085;53.004;6.770;2023-04-03T02:46:40;0.63;;;0.63;;
54177;SDS011;40085;53.004;6.770;2023-04-03T02:49:05;1.45;;;0.60;;
54177;SDS011;40085;53.004;6.770;2023-04-03T02:51:31;4.10;;;0.57;;
54177;SDS011;40085;53.004;6.770;2023-04-03T02:53:57;0.60;;;0.57;;
54177;SDS011;40085;53.004;6.770;2023-04-03T02:56:23;0.60;;;0.57;;
54177;SDS011;40085;53.004;6.770;2023-04-03T02:58:48;0.73;;;0.68;;
54177;SDS011;40085;53.004;6.770;2023-04-03T03:01:14;0.98;;;0.60;;
54177;SDS011;40085;53.004;6.770;2023-04-03T03:03:40;2.75;;;0.70;;
54177;SDS011;40085;53.004;6.770;2023-04-03T03:06:15;4.63;;;0.80;;
54177;SDS011;40085;53.004;6.770;2023-04-03T03:08:42;1.25;;;0.52;;
54177;SDS011;40085;53.004;6.770;2023-04-03T03:11:08;1.27;;;0.75;;
54177;SDS011;40085;53.004;6.770;2023-04-03T03:13:35;0.50;;;0.50;;
54177;SDS011;40085;53.004;6.770;2023-04-03T03:16:01;0.40;;;0.40;;
54177;SDS011;40085;53.004;6.770;2023-04-03T03:18:27;2.42;;;0.70;;
54177;SDS011;40085;53.004;6.770;2023-04-03T03:20:53;0.75;;;0.52;;
54177;SDS011;40085;53.004;6.770;2023-04-03T03:23:21;2.28;;;0.90;;
54177;SDS011;40085;53.004;6.770;2023-04-03T03:25:47;5.18;;;0.73;;
54177;SDS011;40085;53.004;6.770;2023-04-03T03:28:13;0.43;;;0.40;;
54177;SDS011;40085;53.004;6.770;2023-04-03T03:30:39;3.70;;;0.82;;
54177;SDS011;40085;53.004;6.770;2023-04-03T03:33:04;0.43;;;0.40;;
54177;SDS011;40085;53.004;6.770;2023-04-03T03:35:30;1.40;;;0.60;;
54177;SDS011;40085;53.004;6.770;2023-04-03T03:37:56;2.30;;;0.77;;
54177;SDS011;40085;53.004;6.770;2023-04-03T03:40:21;3.83;;;1.10;;
54177;SDS011;40085;53.004;6.770;2023-04-03T03:42:47;0.52;;;0.50;;
54177;SDS011;40085;53.004;6.770;2023-04-03T03:45:12;6.60;;;0.70;;
54177;SDS011;40085;53.004;6.770;2023-04-03T03:47:38;0.65;;;0.57;;
54177;SDS011;40085;53.004;6.770;2023-04-03T03:50:05;0.75;;;0.60;;
54177;SDS011;40085;53.004;6.770;2023-04-03T03:52:31;0.70;;;0.57;;
54177;SDS011;40085;53.004;6.770;2023-04-03T03:54:57;1.75;;;0.80;;
54177;SDS011;40085;53.004;6.770;2023-04-03T03:57:22;1.48;;;0.90;;
54177;SDS011;40085;53.004;6.770;2023-04-03T03:59:48;0.75;;;0.60;;
54177;SDS011;40085;53.004;6.770;2023-04-03T04:02:14;1.92;;;1.00;;
54177;SDS011;40085;53.004;6.770;2023-04-03T04:04:39;1.55;;;0.77;;
54177;SDS011;40085;53.004;6.770;2023-04-03T04:07:05;1.38;;;0.77;;
54177;SDS011;40085;53.004;6.770;2023-04-03T04:09:31;4.13;;;1.10;;
54177;SDS011;40085;53.004;6.770;2023-04-03T04:11:56;0.98;;;0.73;;
54177;SDS011;40085;53.004;6.770;2023-04-03T04:14:22;1.75;;;0.85;;
54177;SDS011;40085;53.004;6.770;2023-04-03T04:16:48;2.60;;;0.82;;
54177;SDS011;40085;53.004;6.770;2023-04-03T04:19:14;2.42;;;0.82;;
54177;SDS011;40085;53.004;6.770;2023-04-03T04:21:40;1.48;;;0.80;;
54177;SDS011;40085;53.004;6.770;2023-04-03T04:24:06;1.23;;;0.70;;
54177;SDS011;40085;53.004;6.770;2023-04-03T04:26:32;5.78;;;1.15;;
54177;SDS011;40085;53.004;6.770;2023-04-03T04:28:58;1.05;;;0.65;;
54177;SDS011;40085;53.004;6.770;2023-04-03T04:31:24;1.42;;;0.70;;
54177;SDS011;40085;53.004;6.770;2023-04-03T04:33:49;1.40;;;0.70;;
54177;SDS011;40085;53.004;6.770;2023-04-03T04:36:15;2.92;;;0.90;;
54177;SDS011;40085;53.004;6.770;2023-04-03T04:38:41;2.80;;;1.00;;
54177;SDS011;40085;53.004;6.770;2023-04-03T04:41:07;1.95;;;0.90;;
54177;SDS011;40085;53.004;6.770;2023-04-03T04:43:32;0.95;;;0.63;;
54177;SDS011;40085;53.004;6.770;2023-04-03T04:46:05;1.92;;;0.85;;
54177;SDS011;40085;53.004;6.770;2023-04-03T04:48:33;1.63;;;0.52;;
54177;SDS011;40085;53.004;6.770;2023-04-03T04:50:59;2.30;;;0.77;;
54177;SDS011;40085;53.004;6.770;2023-04-03T04:53:25;3.47;;;0.90;;
54177;SDS011;40085;53.004;6.770;2023-04-03T04:55:51;3.85;;;0.90;;
54177;SDS011;40085;53.004;6.770;2023-04-03T04:58:17;2.92;;;0.95;;
54177;SDS011;40085;53.004;6.770;2023-04-03T05:00:43;1.80;;;0.93;;
54177;SDS011;40085;53.004;6.770;2023-04-03T05:03:08;2.58;;;1.05;;
54177;SDS011;40085;53.004;6.770;2023-04-03T05:05:34;0.60;;;0.50;;
54177;SDS011;40085;53.004;6.770;2023-04-03T05:08:00;1.60;;;0.80;;
54177;SDS011;40085;53.004;6.770;2023-04-03T05:10:27;1.98;;;0.80;;
54177;SDS011;40085;53.004;6.770;2023-04-03T05:12:53;4.45;;;1.10;;
54177;SDS011;40085;53.004;6.770;2023-04-03T05:15:18;1.88;;;0.90;;
54177;SDS011;40085;53.004;6.770;2023-04-03T05:17:45;1.23;;;0.80;;
54177;SDS011;40085;53.004;6.770;2023-04-03T05:20:10;2.15;;;1.02;;
54177;SDS011;40085;53.004;6.770;2023-04-03T05:22:36;4.45;;;1.02;;
54177;SDS011;40085;53.004;6.770;2023-04-03T05:25:02;2.10;;;0.85;;
54177;SDS011;40085;53.004;6.770;2023-04-03T05:27:28;2.28;;;0.90;;
54177;SDS011;40085;53.004;6.770;2023-04-03T05:29:54;5.28;;;1.30;;
54177;SDS011;40085;53.004;6.770;2023-04-03T05:32:20;1.02;;;0.77;;
54177;SDS011;40085;53.004;6.770;2023-04-03T05:37:17;1.50;;;0.80;;
54177;SDS011;40085;53.004;6.770;2023-04-03T05:39:43;2.47;;;0.93;;
54177;SDS011;40085;53.004;6.770;2023-04-03T05:42:08;1.35;;;1.10;;
54177;SDS011;40085;53.004;6.770;2023-04-03T05:44:34;8.02;;;1.35;;
54177;SDS011;40085;53.004;6.770;2023-04-03T05:47:00;3.25;;;0.80;;
54177;SDS011;40085;53.004;6.770;2023-04-03T05:49:26;2.53;;;1.20;;
54177;SDS011;40085;53.004;6.770;2023-04-03T05:51:51;2.55;;;1.05;;
54177;SDS011;40085;53.004;6.770;2023-04-03T05:54:18;2.33;;;1.15;;
54177;SDS011;40085;53.004;6.770;2023-04-03T05:56:48;2.97;;;1.00;;
54177;SDS011;40085;53.004;6.770;2023-04-03T05:59:14;1.40;;;1.00;;
54177;SDS011;40085;53.004;6.770;2023-04-03T06:01:40;1.90;;;1.02;;
54177;SDS011;40085;53.004;6.770;2023-04-03T06:04:06;1.92;;;0.85;;
54177;SDS011;40085;53.004;6.770;2023-04-03T06:06:43;5.25;;;1.40;;
54177;SDS011;40085;53.004;6.770;2023-04-03T06:09:15;2.73;;;1.23;;
54177;SDS011;40085;53.004;6.770;2023-04-03T06:11:41;3.45;;;1.30;;
54177;SDS011;40085;53.004;6.770;2023-04-03T06:14:07;2.55;;;1.10;;
54177;SDS011;40085;53.004;6.770;2023-04-03T06:16:33;3.38;;;1.08;;
54177;SDS011;40085;53.004;6.770;2023-04-03T06:18:59;3.25;;;1.48;;
54177;SDS011;40085;53.004;6.770;2023-04-03T06:21:25;6.80;;;1.40;;
54177;SDS011;40085;53.004;6.770;2023-04-03T06:23:51;2.60;;;1.05;;
54177;SDS011;40085;53.004;6.770;2023-04-03T06:26:17;1.98;;;0.80;;
54177;SDS011;40085;53.004;6.770;2023-04-03T06:28:42;4.80;;;1.15;;
54177;SDS011;40085;53.004;6.770;2023-04-03T06:31:08;3.58;;;1.10;;
54177;SDS011;40085;53.004;6.770;2023-04-03T06:33:34;1.83;;;1.13;;
54177;SDS011;40085;53.004;6.770;2023-04-03T06:36:02;4.60;;;1.10;;
54177;SDS011;40085;53.004;6.770;2023-04-03T06:38:29;2.95;;;1.30;;
54177;SDS011;40085;53.004;6.770;2023-04-03T06:40:55;1.67;;;0.80;;
54177;SDS011;40085;53.004;6.770;2023-04-03T06:43:21;2.55;;;1.10;;
54177;SDS011;40085;53.004;6.770;2023-04-03T06:45:46;2.22;;;1.45;;
54177;SDS011;40085;53.004;6.770;2023-04-03T06:48:12;5.47;;;1.30;;
54177;SDS011;40085;53.004;6.770;2023-04-03T06:50:38;2.30;;;1.15;;
54177;SDS011;40085;53.004;6.770;2023-04-03T06:53:04;1.95;;;0.98;;
54177;SDS011;40085;53.004;6.770;2023-04-03T06:55:31;1.30;;;1.00;;
54177;SDS011;40085;53.004;6.770;2023-04-03T06:57:56;4.40;;;1.30;;
54177;SDS011;40085;53.004;6.770;2023-04-03T07:00:22;4.35;;;1.38;;
54177;SDS011;40085;53.004;6.770;2023-04-03T07:02:48;1.80;;;0.70;;
54177;SDS011;40085;53.004;6.770;2023-04-03T07:05:13;2.97;;;1.02;;
54177;SDS011;40085;53.004;6.770;2023-04-03T07:07:39;1.95;;;1.25;;
54177;SDS011;40085;53.004;6.770;2023-04-03T07:10:06;1.60;;;1.15;;
54177;SDS011;40085;53.004;6.770;2023-04-03T07:12:33;1.63;;;1.00;;
54177;SDS011;40085;53.004;6.770;2023-04-03T07:14:58;2.10;;;0.93;;
54177;SDS011;40085;53.004;6.770;2023-04-03T07:17:24;1.52;;;1.00;;
54177;SDS011;40085;53.004;6.770;2023-04-03T07:19:50;4.47;;;1.10;;
54177;SDS011;40085;53.004;6.770;2023-04-03T07:22:16;2.03;;;1.05;;
54177;SDS011;40085;53.004;6.770;2023-04-03T07:24:42;7.07;;;2.08;;
54177;SDS011;40085;53.004;6.770;2023-04-03T07:27:09;2.50;;;0.80;;
54177;SDS011;40085;53.004;6.770;2023-04-03T07:29:35;0.93;;;0.68;;
54177;SDS011;40085;53.004;6.770;2023-04-03T07:32:01;0.93;;;0.60;;
54177;SDS011;40085;53.004;6.770;2023-04-03T07:34:27;2.30;;;1.10;;
54177;SDS011;40085;53.004;6.770;2023-04-03T07:36:53;7.53;;;0.88;;
54177;SDS011;40085;53.004;6.770;2023-04-03T07:39:19;0.98;;;0.57;;
54177;SDS011;40085;53.004;6.770;2023-04-03T07:41:45;1.40;;;0.93;;
54177;SDS011;40085;53.004;6.770;2023-04-03T07:44:11;0.98;;;0.60;;
54177;SDS011;40085;53.004;6.770;2023-04-03T07:46:36;3.15;;;0.98;;
54177;SDS011;40085;53.004;6.770;2023-04-03T07:49:03;2.38;;;0.88;;
54177;SDS011;40085;53.004;6.770;2023-04-03T07:51:29;0.82;;;0.50;;
54177;SDS011;40085;53.004;6.770;2023-04-03T07:53:55;1.65;;;0.90;;
54177;SDS011;40085;53.004;6.770;2023-04-03T07:56:20;10.77;;;0.85;;
54177;SDS011;40085;53.004;6.770;2023-04-03T07:58:46;2.00;;;0.73;;
54177;SDS011;40085;53.004;6.770;2023-04-03T08:01:12;2.55;;;0.93;;
54177;SDS011;40085;53.004;6.770;2023-04-03T08:03:38;1.40;;;0.68;;
54177;SDS011;40085;53.004;6.770;2023-04-03T08:06:05;1.85;;;0.93;;
54177;SDS011;40085;53.004;6.770;2023-04-03T08:08:32;2.38;;;1.00;;
54177;SDS011;40085;53.004;6.770;2023-04-03T08:10:59;1.88;;;0.80;;
54177;SDS011;40085;53.004;6.770;2023-04-03T08:13:26;1.33;;;0.70;;
54177;SDS011;40085;53.004;6.770;2023-04-03T08:15:52;1.85;;;0.73;;
54177;SDS011;40085;53.004;6.770;2023-04-03T08:18:18;1.67;;;0.68;;
54177;SDS011;40085;53.004;6.770;2023-04-03T08:20:46;1.52;;;0.65;;
54177;SDS011;40085;53.004;6.770;2023-04-03T08:23:12;4.35;;;0.70;;
54177;SDS011;40085;53.004;6.770;2023-04-03T08:25:42;1.27;;;0.60;;
54177;SDS011;40085;53.004;6.770;2023-04-03T08:28:08;1.05;;;0.43;;
54177;SDS011;40085;53.004;6.770;2023-04-03T08:30:38;1.70;;;0.50;;
54177;SDS011;40085;53.004;6.770;2023-04-03T08:33:05;2.60;;;0.93;;
54177;SDS011;40085;53.004;6.770;2023-04-03T08:35:31;0.98;;;0.50;;
54177;SDS011;40085;53.004;6.770;2023-04-03T08:37:57;1.58;;;0.60;;
54177;SDS011;40085;53.004;6.770;2023-04-03T08:40:22;1.00;;;0.57;;
54177;SDS011;40085;53.004;6.770;2023-04-03T08:45:38;1.35;;;0.57;;
54177;SDS011;40085;53.004;6.770;2023-04-03T08:48:15;1.35;;;0.88;;
54177;SDS011;40085;53.004;6.770;2023-04-03T08:50:50;0.90;;;0.47;;
54177;SDS011;40085;53.004;6.770;2023-04-03T08:53:20;2.78;;;0.80;;
54177;SDS011;40085;53.004;6.770;2023-04-03T08:55:49;1.00;;;0.57;;
54177;SDS011;40085;53.004;6.770;2023-04-03T08:58:20;0.70;;;0.52;;
54177;SDS011;40085;53.004;6.770;2023-04-03T09:00:56;1.92;;;0.68;;
54177;SDS011;40085;53.004;6.770;2023-04-03T09:03:23;0.73;;;0.50;;
54177;SDS011;40085;53.004;6.770;2023-04-03T09:08:24;1.25;;;0.47;;
54177;SDS011;40085;53.004;6.770;2023-04-03T09:13:59;2.37;;;0.73;;
54177;SDS011;40085;53.004;6.770;2023-04-03T09:22:13;1.45;;;0.75;;
54177;SDS011;40085;53.004;6.770;2023-04-03T09:24:42;3.75;;;0.75;;
54177;SDS011;40085;53.004;6.770;2023-04-03T09:27:10;1.05;;;0.65;;
54177;SDS011;40085;53.004;6.770;2023-04-03T09:29:39;0.98;;;0.65;;
54177;SDS011;40085;53.004;6.770;2023-04-03T09:32:27;0.75;;;0.47;;
54177;SDS011;40085;53.004;6.770;2023-04-03T09:34:56;1.63;;;0.55;;
54177;SDS011;40085;53.004;6.770;2023-04-03T09:37:48;2.80;;;1.15;;
54177;SDS011;40085;53.004;6.770;2023-04-03T09:42:51;1.27;;;0.57;;
54177;SDS011;40085;53.004;6.770;2023-04-03T09:45:25;0.43;;;0.38;;
54177;SDS011;40085;53.004;6.770;2023-04-03T09:50:34;0.75;;;0.50;;
54177;SDS011;40085;53.004;6.770;2023-04-03T09:53:04;0.50;;;0.50;;
54177;SDS011;40085;53.004;6.770;2023-04-03T09:55:49;4.32;;;0.77;;
54177;SDS011;40085;53.004;6.770;2023-04-03T09:58:36;1.13;;;0.50;;
54177;SDS011;40085;53.004;6.770;2023-04-03T10:01:05;1.52;;;0.57;;
54177;SDS011;40085;53.004;6.770;2023-04-03T10:03:45;0.50;;;0.50;;
54177;SDS011;40085;53.004;6.770;2023-04-03T10:06:23;0.43;;;0.22;;
54177;SDS011;40085;53.004;6.770;2023-04-03T10:08:59;1.25;;;0.50;;
54177;SDS011;40085;53.004;6.770;2023-04-03T10:11:29;3.50;;;0.40;;
54177;SDS011;40085;53.004;6.770;2023-04-03T10:13:56;0.90;;;0.30;;
54177;SDS011;40085;53.004;6.770;2023-04-03T10:16:38;0.65;;;0.40;;
54177;SDS011;40085;53.004;6.770;2023-04-03T10:19:21;0.40;;;0.30;;
54177;SDS011;40085;53.004;6.770;2023-04-03T10:21:55;1.10;;;0.70;;
54177;SDS011;40085;53.004;6.770;2023-04-03T10:24:32;0.73;;;0.47;;
54177;SDS011;40085;53.004;6.770;2023-04-03T10:27:26;0.95;;;0.30;;
54177;SDS011;40085;53.004;6.770;2023-04-03T10:46:48;0.35;;;0.35;;
54177;SDS011;40085;53.004;6.770;2023-04-03T10:52:24;0.65;;;0.50;;
54177;SDS011;40085;53.004;6.770;2023-04-03T10:55:02;1.15;;;0.55;;
54177;SDS011;40085;53.004;6.770;2023-04-03T10:57:39;0.20;;;0.20;;
54177;SDS011;40085;53.004;6.770;2023-04-03T11:00:06;1.65;;;0.32;;
54177;SDS011;40085;53.004;6.770;2023-04-03T11:02:53;0.30;;;0.30;;
54177;SDS011;40085;53.004;6.770;2023-04-03T11:05:26;0.70;;;0.50;;
54177;SDS011;40085;53.004;6.770;2023-04-03T11:08:01;0.77;;;0.40;;
54177;SDS011;40085;53.004;6.770;2023-04-03T11:10:36;0.55;;;0.43;;
54177;SDS011;40085;53.004;6.770;2023-04-03T11:16:05;0.65;;;0.40;;
54177;SDS011;40085;53.004;6.770;2023-04-03T11:18:35;0.85;;;0.43;;
54177;SDS011;40085;53.004;6.770;2023-04-03T11:21:18;0.22;;;0.22;;
54177;SDS011;40085;53.004;6.770;2023-04-03T11:23:59;0.68;;;0.40;;
54177;SDS011;40085;53.004;6.770;2023-04-03T11:26:30;0.75;;;0.50;;
54177;SDS011;40085;53.004;6.770;2023-04-03T11:29:06;0.47;;;0.40;;
54177;SDS011;40085;53.004;6.770;2023-04-03T11:37:04;0.77;;;0.50;;
54177;SDS011;40085;53.004;6.770;2023-04-03T11:39:36;0.50;;;0.47;;
54177;SDS011;40085;53.004;6.770;2023-04-03T11:47:48;0.80;;;0.47;;
54177;SDS011;40085;53.004;6.770;2023-04-03T11:53:00;0.38;;;0.38;;
54177;SDS011;40085;53.004;6.770;2023-04-03T12:05:55;1.13;;;0.63;;
54177;SDS011;40085;53.004;6.770;2023-04-03T12:16:19;3.08;;;0.52;;
54177;SDS011;40085;53.004;6.770;2023-04-03T12:19:04;1.20;;;0.60;;
54177;SDS011;40085;53.004;6.770;2023-04-03T12:24:25;0.50;;;0.40;;
54177;SDS011;40085;53.004;6.770;2023-04-03T12:29:28;0.50;;;0.50;;
54177;SDS011;40085;53.004;6.770;2023-04-03T12:37:09;1.35;;;0.75;;
54177;SDS011;40085;53.004;6.770;2023-04-03T12:40:49;1.13;;;0.60;;
54177;SDS011;40085;53.004;6.770;2023-04-03T12:45:43;2.88;;;0.95;;
54177;SDS011;40085;53.004;6.770;2023-04-03T12:48:27;1.35;;;0.70;;
54177;SDS011;40085;53.004;6.770;2023-04-03T12:50:55;1.02;;;0.40;;
54177;SDS011;40085;53.004;6.770;2023-04-03T12:53:25;1.27;;;0.60;;
54177;SDS011;40085;53.004;6.770;2023-04-03T12:56:18;1.23;;;0.47;;
54177;SDS011;40085;53.004;6.770;2023-04-03T12:58:55;1.83;;;0.68;;
54177;SDS011;40085;53.004;6.770;2023-04-03T13:01:41;1.33;;;0.60;;
54177;SDS011;40085;53.004;6.770;2023-04-03T13:04:09;1.13;;;0.60;;
54177;SDS011;40085;53.004;6.770;2023-04-03T13:06:41;1.35;;;0.50;;
54177;SDS011;40085;53.004;6.770;2023-04-03T13:09:19;2.22;;;0.70;;
54177;SDS011;40085;53.004;6.770;2023-04-03T13:12:14;0.98;;;0.60;;
54177;SDS011;40085;53.004;6.770;2023-04-03T13:14:40;0.57;;;0.57;;
54177;SDS011;40085;53.004;6.770;2023-04-03T13:17:16;1.55;;;0.70;;
54177;SDS011;40085;53.004;6.770;2023-04-03T13:19:43;0.88;;;0.50;;
54177;SDS011;40085;53.004;6.770;2023-04-03T13:22:25;1.38;;;0.70;;
54177;SDS011;40085;53.004;6.770;2023-04-03T13:25:04;0.90;;;0.50;;
54177;SDS011;40085;53.004;6.770;2023-04-03T13:27:33;0.88;;;0.70;;
54177;SDS011;40085;53.004;6.770;2023-04-03T13:30:00;0.70;;;0.45;;
54177;SDS011;40085;53.004;6.770;2023-04-03T13:32:28;0.75;;;0.55;;
54177;SDS011;40085;53.004;6.770;2023-04-03T13:34:56;0.98;;;0.50;;
54177;SDS011;40085;53.004;6.770;2023-04-03T13:37:26;1.10;;;0.50;;
54177;SDS011;40085;53.004;6.770;2023-04-03T13:39:59;1.58;;;0.70;;
54177;SDS011;40085;53.004;6.770;2023-04-03T13:42:33;2.90;;;0.83;;
54177;SDS011;40085;53.004;6.770;2023-04-03T13:47:43;1.50;;;0.80;;
54177;SDS011;40085;53.004;6.770;2023-04-03T13:50:15;2.63;;;0.95;;
54177;SDS011;40085;53.004;6.770;2023-04-03T13:52:43;1.33;;;0.40;;
54177;SDS011;40085;53.004;6.770;2023-04-03T13:55:18;1.35;;;0.60;;
54177;SDS011;40085;53.004;6.770;2023-04-03T13:57:55;1.35;;;0.60;;
54177;SDS011;40085;53.004;6.770;2023-04-03T14:00:47;0.63;;;0.43;;
54177;SDS011;40085;53.004;6.770;2023-04-03T14:03:25;0.95;;;0.50;;
54177;SDS011;40085;53.004;6.770;2023-04-03T14:05:52;1.65;;;0.50;;
54177;SDS011;40085;53.004;6.770;2023-04-03T14:08:18;0.40;;;0.40;;
54177;SDS011;40085;53.004;6.770;2023-04-03T14:10:45;1.70;;;0.60;;
54177;SDS011;40085;53.004;6.770;2023-04-03T14:13:15;5.22;;;0.80;;
54177;SDS011;40085;53.004;6.770;2023-04-03T14:18:13;0.65;;;0.50;;
54177;SDS011;40085;53.004;6.770;2023-04-03T14:20:40;0.40;;;0.40;;
54177;SDS011;40085;53.004;6.770;2023-04-03T14:23:06;6.22;;;0.60;;
54177;SDS011;40085;53.004;6.770;2023-04-03T14:25:31;3.28;;;0.50;;
54177;SDS011;40085;53.004;6.770;2023-04-03T14:27:57;1.17;;;0.57;;
54177;SDS011;40085;53.004;6.770;2023-04-03T14:30:26;1.98;;;0.60;;
54177;SDS011;40085;53.004;6.770;2023-04-03T14:32:54;0.70;;;0.47;;
54177;SDS011;40085;53.004;6.770;2023-04-03T14:35:20;1.10;;;0.45;;
54177;SDS011;40085;53.004;6.770;2023-04-03T14:37:46;3.15;;;0.60;;
54177;SDS011;40085;53.004;6.770;2023-04-03T14:40:13;2.22;;;1.02;;
54177;SDS011;40085;53.004;6.770;2023-04-03T14:42:39;0.40;;;0.40;;
54177;SDS011;40085;53.004;6.770;2023-04-03T14:45:07;0.50;;;0.50;;
54177;SDS011;40085;53.004;6.770;2023-04-03T14:47:37;1.55;;;0.50;;
54177;SDS011;40085;53.004;6.770;2023-04-03T14:50:11;1.75;;;0.70;;
54177;SDS011;40085;53.004;6.770;2023-04-03T14:52:41;2.40;;;0.60;;
54177;SDS011;40085;53.004;6.770;2023-04-03T14:55:07;1.10;;;0.68;;
54177;SDS011;40085;53.004;6.770;2023-04-03T14:57:33;0.57;;;0.40;;
54177;SDS011;40085;53.004;6.770;2023-04-03T14:59:59;0.65;;;0.50;;
54177;SDS011;40085;53.004;6.770;2023-04-03T15:02:33;0.88;;;0.60;;
54177;SDS011;40085;53.004;6.770;2023-04-03T15:05:00;1.05;;;0.50;;
54177;SDS011;40085;53.004;6.770;2023-04-03T15:07:29;0.68;;;0.50;;
54177;SDS011;40085;53.004;6.770;2023-04-03T15:09:58;0.60;;;0.40;;
54177;SDS011;40085;53.004;6.770;2023-04-03T15:12:26;0.40;;;0.38;;
54177;SDS011;40085;53.004;6.770;2023-04-03T15:14:52;1.05;;;0.43;;
54177;SDS011;40085;53.004;6.770;2023-04-03T15:17:19;3.65;;;0.70;;
54177;SDS011;40085;53.004;6.770;2023-04-03T15:19:47;0.98;;;0.50;;
54177;SDS011;40085;53.004;6.770;2023-04-03T15:22:13;0.43;;;0.30;;
54177;SDS011;40085;53.004;6.770;2023-04-03T15:24:40;0.30;;;0.30;;
54177;SDS011;40085;53.004;6.770;2023-04-03T15:27:07;1.08;;;0.50;;
54177;SDS011;40085;53.004;6.770;2023-04-03T15:29:33;0.65;;;0.38;;
54177;SDS011;40085;53.004;6.770;2023-04-03T15:31:59;0.38;;;0.30;;
54177;SDS011;40085;53.004;6.770;2023-04-03T15:34:24;1.15;;;0.75;;
54177;SDS011;40085;53.004;6.770;2023-04-03T15:36:50;0.68;;;0.52;;
54177;SDS011;40085;53.004;6.770;2023-04-03T15:39:19;5.15;;;0.88;;
54177;SDS011;40085;53.004;6.770;2023-04-03T15:41:45;1.38;;;0.50;;
54177;SDS011;40085;53.004;6.770;2023-04-03T15:44:11;3.45;;;0.60;;
54177;SDS011;40085;53.004;6.770;2023-04-03T15:46:38;0.70;;;0.50;;
54177;SDS011;40085;53.004;6.770;2023-04-03T15:49:04;0.73;;;0.43;;
54177;SDS011;40085;53.004;6.770;2023-04-03T15:51:30;1.40;;;0.60;;
54177;SDS011;40085;53.004;6.770;2023-04-03T15:53:56;0.85;;;0.50;;
54177;SDS011;40085;53.004;6.770;2023-04-03T15:56:22;0.32;;;0.32;;
54177;SDS011;40085;53.004;6.770;2023-04-03T15:58:47;1.27;;;0.70;;
54177;SDS011;40085;53.004;6.770;2023-04-03T16:01:13;1.25;;;0.68;;
54177;SDS011;40085;53.004;6.770;2023-04-03T16:03:40;0.82;;;0.70;;
54177;SDS011;40085;53.004;6.770;2023-04-03T16:06:10;0.40;;;0.40;;
54177;SDS011;40085;53.004;6.770;2023-04-03T16:08:37;0.93;;;0.50;;
54177;SDS011;40085;53.004;6.770;2023-04-03T16:11:03;0.30;;;0.30;;
54177;SDS011;40085;53.004;6.770;2023-04-03T16:13:29;1.20;;;0.63;;
54177;SDS011;40085;53.004;6.770;2023-04-03T16:15:54;1.60;;;0.82;;
54177;SDS011;40085;53.004;6.770;2023-04-03T16:18:20;0.40;;;0.40;;
54177;SDS011;40085;53.004;6.770;2023-04-03T16:20:46;0.93;;;0.60;;
54177;SDS011;40085;53.004;6.770;2023-04-03T16:23:12;0.43;;;0.40;;
54177;SDS011;40085;53.004;6.770;2023-04-03T16:25:38;1.45;;;0.80;;
54177;SDS011;40085;53.004;6.770;2023-04-03T16:28:03;3.58;;;1.02;;
54177;SDS011;40085;53.004;6.770;2023-04-03T16:30:29;1.40;;;0.50;;
54177;SDS011;40085;53.004;6.770;2023-04-03T16:32:56;1.52;;;0.45;;
54177;SDS011;40085;53.004;6.770;2023-04-03T16:35:22;2.60;;;0.50;;
54177;SDS011;40085;53.004;6.770;2023-04-03T16:37:47;0.40;;;0.40;;